sensor_id;sensor_type;location;lat;lon;timestamp;temperature;humidity
37108;DHT22;23019;49.300;6.846;2022-08-21T00:00:25;27.90;99.90
37108;DHT22;23019;49.300;6.846;2022-08-21T00:02:27;27.90;99.90
37108;DHT22;23019;49.300;6.846;2022-08-21T00:04:28;27.90;99.90
37108;DHT22;23019;49.300;6.846;2022-08-21T00:06:28;27.90;99.90
37108;DHT22;23019;49.300;6.846;2022-08-21T00:08:29;27.80;99.90
37108;DHT22;23019;49.300;6.846;2022-08-21T00:10:31;27.80;99.90
37108;DHT22;23019;49.300;6.846;2022-08-21T00:12:34;27.80;99.90
37108;DHT22;23019;49.300;6.846;2022-08-21T00:14:37;27.80;99.90
37108;DHT22;23019;49.300;6.846;2022-08-21T00:16:38;27.80;99.90
37108;DHT22;23019;49.300;6.846;2022-08-21T00:18:39;27.80;99.90
37108;DHT22;23019;49.300;6.846;2022-08-21T00:20:41;27.80;99.90
37108;DHT22;23019;49.300;6.846;2022-08-21T00:22:42;27.80;99.90
37108;DHT22;23019;49.300;6.846;2022-08-21T00:24:43;27.90;99.90
37108;DHT22;23019;49.300;6.846;2022-08-21T00:26:44;27.90;99.90
37108;DHT22;23019;49.300;6.846;2022-08-21T00:28:45;27.80;99.90
37108;DHT22;23019;49.300;6.846;2022-08-21T00:30:46;27.80;99.90
37108;DHT22;23019;49.300;6.846;2022-08-21T00:32:47;27.90;99.90
37108;DHT22;23019;49.300;6.846;2022-08-21T00:34:47;27.90;99.90
37108;DHT22;23019;49.300;6.846;2022-08-21T00:36:48;27.90;99.90
37108;DHT22;23019;49.300;6.846;2022-08-21T00:38:49;27.90;99.90
37108;DHT22;23019;49.300;6.846;2022-08-21T00:40:53;28.00;99.90
37108;DHT22;23019;49.300;6.846;2022-08-21T00:42:54;28.10;99.90
37108;DHT22;23019;49.300;6.846;2022-08-21T00:44:55;28.10;99.90
37108;DHT22;23019;49.300;6.846;2022-08-21T00:46:55;28.10;99.90
37108;DHT22;23019;49.300;6.846;2022-08-21T00:48:56;28.20;99.90
37108;DHT22;23019;49.300;6.846;2022-08-21T00:51:06;28.20;99.90
37108;DHT22;23019;49.300;6.846;2022-08-21T00:53:07;28.30;99.90
37108;DHT22;23019;49.300;6.846;2022-08-21T00:55:11;28.30;99.90
37108;DHT22;23019;49.300;6.846;2022-08-21T00:57:17;28.40;99.90
37108;DHT22;23019;49.300;6.846;2022-08-21T00:59:20;28.50;99.90
37108;DHT22;23019;49.300;6.846;2022-08-21T01:01:21;28.60;99.90
37108;DHT22;23019;49.300;6.846;2022-08-21T01:03:23;28.60;99.90
37108;DHT22;23019;49.300;6.846;2022-08-21T01:05:26;28.80;99.90
37108;DHT22;23019;49.300;6.846;2022-08-21T01:07:27;28.80;99.90
37108;DHT22;23019;49.300;6.846;2022-08-21T01:09:28;28.90;99.90
37108;DHT22;23019;49.300;6.846;2022-08-21T01:11:28;29.00;99.90
37108;DHT22;23019;49.300;6.846;2022-08-21T01:13:35;29.10;99.90
37108;DHT22;23019;49.300;6.846;2022-08-21T01:15:39;29.20;99.90
37108;DHT22;23019;49.300;6.846;2022-08-21T01:17:40;29.30;99.90
37108;DHT22;23019;49.300;6.846;2022-08-21T01:19:41;29.40;99.90
37108;DHT22;23019;49.300;6.846;2022-08-21T01:21:42;29.50;99.90
37108;DHT22;23019;49.300;6.846;2022-08-21T01:23:45;29.60;99.90
37108;DHT22;23019;49.300;6.846;2022-08-21T01:25:46;29.70;99.90
37108;DHT22;23019;49.300;6.846;2022-08-21T01:27:47;29.80;99.90
37108;DHT22;23019;49.300;6.846;2022-08-21T01:29:54;30.00;99.90
37108;DHT22;23019;49.300;6.846;2022-08-21T01:31:58;30.10;99.90
37108;DHT22;23019;49.300;6.846;2022-08-21T01:33:59;30.20;99.90
37108;DHT22;23019;49.300;6.846;2022-08-21T01:36:00;30.20;99.90
37108;DHT22;23019;49.300;6.846;2022-08-21T01:38:01;30.30;99.90
37108;DHT22;23019;49.300;6.846;2022-08-21T01:40:04;30.40;99.90
37108;DHT22;23019;49.300;6.846;2022-08-21T01:42:05;30.40;99.90
37108;DHT22;23019;49.300;6.846;2022-08-21T01:44:06;30.50;99.90
37108;DHT22;23019;49.300;6.846;2022-08-21T01:46:07;30.50;99.90
37108;DHT22;23019;49.300;6.846;2022-08-21T01:48:07;30.50;99.90
37108;DHT22;23019;49.300;6.846;2022-08-21T01:50:11;30.60;99.90
37108;DHT22;23019;49.300;6.846;2022-08-21T01:52:12;30.60;99.90
37108;DHT22;23019;49.300;6.846;2022-08-21T01:54:13;30.60;99.90
37108;DHT22;23019;49.300;6.846;2022-08-21T01:56:16;30.60;99.90
37108;DHT22;23019;49.300;6.846;2022-08-21T01:58:17;30.60;99.90
37108;DHT22;23019;49.300;6.846;2022-08-21T02:00:20;30.60;99.90
37108;DHT22;23019;49.300;6.846;2022-08-21T02:02:23;30.70;99.90
37108;DHT22;23019;49.300;6.846;2022-08-21T02:04:24;30.70;99.90
37108;DHT22;23019;49.300;6.846;2022-08-21T02:06:25;30.70;99.90
37108;DHT22;23019;49.300;6.846;2022-08-21T02:08:27;30.70;99.90
37108;DHT22;23019;49.300;6.846;2022-08-21T02:10:31;30.70;99.90
37108;DHT22;23019;49.300;6.846;2022-08-21T02:12:32;30.70;99.90
37108;DHT22;23019;49.300;6.846;2022-08-21T02:14:33;30.70;99.90
37108;DHT22;23019;49.300;6.846;2022-08-21T02:16:33;30.60;99.90
37108;DHT22;23019;49.300;6.846;2022-08-21T02:18:35;30.70;99.90
37108;DHT22;23019;49.300;6.846;2022-08-21T02:20:44;30.60;99.90
37108;DHT22;23019;49.300;6.846;2022-08-21T02:22:45;30.60;99.90
37108;DHT22;23019;49.300;6.846;2022-08-21T02:24:46;30.60;99.90
37108;DHT22;23019;49.300;6.846;2022-08-21T02:26:47;30.60;99.90
37108;DHT22;23019;49.300;6.846;2022-08-21T02:28:48;30.60;99.90
37108;DHT22;23019;49.300;6.846;2022-08-21T02:30:52;30.50;99.90
37108;DHT22;23019;49.300;6.846;2022-08-21T02:32:53;30.50;99.90
37108;DHT22;23019;49.300;6.846;2022-08-21T02:34:54;30.50;99.90
37108;DHT22;23019;49.300;6.846;2022-08-21T02:36:55;30.50;99.90
37108;DHT22;23019;49.300;6.846;2022-08-21T02:38:56;30.50;99.90
37108;DHT22;23019;49.300;6.846;2022-08-21T02:40:57;30.50;99.90
37108;DHT22;23019;49.300;6.846;2022-08-21T02:42:59;30.50;99.90
37108;DHT22;23019;49.300;6.846;2022-08-21T02:45:00;30.40;99.90
37108;DHT22;23019;49.300;6.846;2022-08-21T02:47:03;30.40;99.90
37108;DHT22;23019;49.300;6.846;2022-08-21T02:49:04;30.40;99.90
37108;DHT22;23019;49.300;6.846;2022-08-21T02:51:13;30.30;99.90
37108;DHT22;23019;49.300;6.846;2022-08-21T02:53:18;30.30;99.90
37108;DHT22;23019;49.300;6.846;2022-08-21T02:55:20;30.30;99.90
37108;DHT22;23019;49.300;6.846;2022-08-21T02:57:21;30.30;99.90
37108;DHT22;23019;49.300;6.846;2022-08-21T02:59:22;30.30;99.90
37108;DHT22;23019;49.300;6.846;2022-08-21T03:01:23;30.20;99.90
37108;DHT22;23019;49.300;6.846;2022-08-21T03:03:25;30.20;99.90
37108;DHT22;23019;49.300;6.846;2022-08-21T03:05:28;30.20;99.90
37108;DHT22;23019;49.300;6.846;2022-08-21T03:07:31;30.10;99.90
37108;DHT22;23019;49.300;6.846;2022-08-21T03:09:32;30.20;99.90
37108;DHT22;23019;49.300;6.846;2022-08-21T03:11:33;30.20;99.90
37108;DHT22;23019;49.300;6.846;2022-08-21T03:13:33;30.10;99.90
37108;DHT22;23019;49.300;6.846;2022-08-21T03:15:34;30.10;99.90
37108;DHT22;23019;49.300;6.846;2022-08-21T03:17:36;30.00;99.90
37108;DHT22;23019;49.300;6.846;2022-08-21T03:19:37;30.00;99.90
37108;DHT22;23019;49.300;6.846;2022-08-21T03:21:40;30.00;99.90
37108;DHT22;23019;49.300;6.846;2022-08-21T03:23:41;29.90;99.90
37108;DHT22;23019;49.300;6.846;2022-08-21T03:25:42;29.90;99.90
37108;DHT22;23019;49.300;6.846;2022-08-21T03:27:44;29.90;99.90
37108;DHT22;23019;49.300;6.846;2022-08-21T03:29:45;29.90;99.90
37108;DHT22;23019;49.300;6.846;2022-08-21T03:31:45;29.80;99.90
37108;DHT22;23019;49.300;6.846;2022-08-21T03:33:49;29.80;99.90
37108;DHT22;23019;49.300;6.846;2022-08-21T03:35:59;29.80;99.90
37108;DHT22;23019;49.300;6.846;2022-08-21T03:38:01;29.70;99.90
37108;DHT22;23019;49.300;6.846;2022-08-21T03:40:04;29.70;99.90
37108;DHT22;23019;49.300;6.846;2022-08-21T03:42:05;29.70;99.90
37108;DHT22;23019;49.300;6.846;2022-08-21T03:44:06;29.60;99.90
37108;DHT22;23019;49.300;6.846;2022-08-21T03:46:07;29.60;99.90
37108;DHT22;23019;49.300;6.846;2022-08-21T03:48:08;29.60;99.90
37108;DHT22;23019;49.300;6.846;2022-08-21T03:50:09;29.60;99.90
37108;DHT22;23019;49.300;6.846;2022-08-21T03:52:10;29.50;99.90
37108;DHT22;23019;49.300;6.846;2022-08-21T03:54:11;29.50;99.90
37108;DHT22;23019;49.300;6.846;2022-08-21T03:56:11;29.50;99.90
37108;DHT22;23019;49.300;6.846;2022-08-21T03:58:16;29.40;99.90
37108;DHT22;23019;49.300;6.846;2022-08-21T04:00:19;29.40;99.90
37108;DHT22;23019;49.300;6.846;2022-08-21T04:02:21;29.30;99.90
37108;DHT22;23019;49.300;6.846;2022-08-21T04:04:22;29.30;99.90
37108;DHT22;23019;49.300;6.846;2022-08-21T04:06:23;29.20;99.90
37108;DHT22;23019;49.300;6.846;2022-08-21T04:08:23;29.20;99.90
37108;DHT22;23019;49.300;6.846;2022-08-21T04:10:25;29.20;99.90
37108;DHT22;23019;49.300;6.846;2022-08-21T04:12:26;29.20;99.90
37108;DHT22;23019;49.300;6.846;2022-08-21T04:14:27;29.10;99.90
37108;DHT22;23019;49.300;6.846;2022-08-21T04:16:30;29.10;99.90
37108;DHT22;23019;49.300;6.846;2022-08-21T04:18:31;29.10;99.90
37108;DHT22;23019;49.300;6.846;2022-08-21T04:20:32;29.00;99.90
37108;DHT22;23019;49.300;6.846;2022-08-21T04:22:33;29.00;99.90
37108;DHT22;23019;49.300;6.846;2022-08-21T04:24:34;29.00;99.90
37108;DHT22;23019;49.300;6.846;2022-08-21T04:26:36;28.90;99.90
37108;DHT22;23019;49.300;6.846;2022-08-21T04:28:37;28.90;99.90
37108;DHT22;23019;49.300;6.846;2022-08-21T04:30:38;28.80;99.90
37108;DHT22;23019;49.300;6.846;2022-08-21T04:32:42;28.80;99.90
37108;DHT22;23019;49.300;6.846;2022-08-21T04:34:44;28.80;99.90
37108;DHT22;23019;49.300;6.846;2022-08-21T04:36:47;28.70;99.90
37108;DHT22;23019;49.300;6.846;2022-08-21T04:38:48;28.70;99.90
37108;DHT22;23019;49.300;6.846;2022-08-21T04:40:50;28.60;99.90
37108;DHT22;23019;49.300;6.846;2022-08-21T04:43:00;28.60;99.90
37108;DHT22;23019;49.300;6.846;2022-08-21T04:45:01;28.60;99.90
37108;DHT22;23019;49.300;6.846;2022-08-21T04:47:02;28.50;99.90
37108;DHT22;23019;49.300;6.846;2022-08-21T04:49:03;28.50;99.90
37108;DHT22;23019;49.300;6.846;2022-08-21T04:51:13;28.40;99.90
37108;DHT22;23019;49.300;6.846;2022-08-21T04:53:27;28.40;99.90
37108;DHT22;23019;49.300;6.846;2022-08-21T04:55:31;28.40;99.90
37108;DHT22;23019;49.300;6.846;2022-08-21T04:57:32;28.30;99.90
37108;DHT22;23019;49.300;6.846;2022-08-21T04:59:37;28.30;99.90
37108;DHT22;23019;49.300;6.846;2022-08-21T05:01:39;28.30;99.90
37108;DHT22;23019;49.300;6.846;2022-08-21T05:03:41;28.20;99.90
37108;DHT22;23019;49.300;6.846;2022-08-21T05:05:42;28.20;99.90
37108;DHT22;23019;49.300;6.846;2022-08-21T05:07:44;28.10;99.90
37108;DHT22;23019;49.300;6.846;2022-08-21T05:09:45;28.10;99.90
37108;DHT22;23019;49.300;6.846;2022-08-21T05:11:46;28.10;99.90
37108;DHT22;23019;49.300;6.846;2022-08-21T05:13:49;28.00;99.90
37108;DHT22;23019;49.300;6.846;2022-08-21T05:15:50;28.00;99.90
37108;DHT22;23019;49.300;6.846;2022-08-21T05:17:50;28.00;99.90
37108;DHT22;23019;49.300;6.846;2022-08-21T05:19:51;27.90;99.90
37108;DHT22;23019;49.300;6.846;2022-08-21T05:21:52;27.90;99.90
37108;DHT22;23019;49.300;6.846;2022-08-21T05:23:53;27.80;99.90
37108;DHT22;23019;49.300;6.846;2022-08-21T05:25:54;27.80;99.90
37108;DHT22;23019;49.300;6.846;2022-08-21T05:27:56;27.80;99.90
37108;DHT22;23019;49.300;6.846;2022-08-21T05:29:57;27.70;99.90
37108;DHT22;23019;49.300;6.846;2022-08-21T05:31:57;27.70;99.90
37108;DHT22;23019;49.300;6.846;2022-08-21T05:33:58;27.60;99.90
37108;DHT22;23019;49.300;6.846;2022-08-21T05:35:59;27.60;99.90
37108;DHT22;23019;49.300;6.846;2022-08-21T05:38:00;27.60;99.90
37108;DHT22;23019;49.300;6.846;2022-08-21T05:40:01;27.60;99.90
37108;DHT22;23019;49.300;6.846;2022-08-21T05:42:02;27.50;99.90
37108;DHT22;23019;49.300;6.846;2022-08-21T05:44:03;27.50;99.90
37108;DHT22;23019;49.300;6.846;2022-08-21T05:46:05;27.40;99.90
37108;DHT22;23019;49.300;6.846;2022-08-21T05:48:07;27.40;99.90
37108;DHT22;23019;49.300;6.846;2022-08-21T05:50:08;27.40;99.90
37108;DHT22;23019;49.300;6.846;2022-08-21T05:52:09;27.30;99.90
37108;DHT22;23019;49.300;6.846;2022-08-21T05:54:10;27.30;99.90
37108;DHT22;23019;49.300;6.846;2022-08-21T05:56:12;27.30;99.90
37108;DHT22;23019;49.300;6.846;2022-08-21T05:58:15;27.20;99.90
37108;DHT22;23019;49.300;6.846;2022-08-21T06:00:16;27.20;99.90
37108;DHT22;23019;49.300;6.846;2022-08-21T06:02:18;27.20;99.90
37108;DHT22;23019;49.300;6.846;2022-08-21T06:04:19;27.10;99.90
37108;DHT22;23019;49.300;6.846;2022-08-21T06:06:20;27.10;99.90
37108;DHT22;23019;49.300;6.846;2022-08-21T06:08:22;27.10;99.90
37108;DHT22;23019;49.300;6.846;2022-08-21T06:10:22;27.00;99.90
37108;DHT22;23019;49.300;6.846;2022-08-21T06:12:24;27.00;99.90
37108;DHT22;23019;49.300;6.846;2022-08-21T06:14:25;27.00;99.90
37108;DHT22;23019;49.300;6.846;2022-08-21T06:16:27;26.90;99.90
37108;DHT22;23019;49.300;6.846;2022-08-21T06:18:28;26.90;99.90
37108;DHT22;23019;49.300;6.846;2022-08-21T06:20:29;26.90;99.90
37108;DHT22;23019;49.300;6.846;2022-08-21T06:22:30;26.80;99.90
37108;DHT22;23019;49.300;6.846;2022-08-21T06:24:31;26.80;99.90
37108;DHT22;23019;49.300;6.846;2022-08-21T06:26:32;26.80;99.90
37108;DHT22;23019;49.300;6.846;2022-08-21T06:28:34;26.80;99.90
37108;DHT22;23019;49.300;6.846;2022-08-21T06:30:36;26.70;99.90
37108;DHT22;23019;49.300;6.846;2022-08-21T06:32:37;26.70;99.90
37108;DHT22;23019;49.300;6.846;2022-08-21T06:34:40;26.70;99.90
37108;DHT22;23019;49.300;6.846;2022-08-21T06:36:41;26.60;99.90
37108;DHT22;23019;49.300;6.846;2022-08-21T06:38:42;26.60;99.90
37108;DHT22;23019;49.300;6.846;2022-08-21T06:40:42;26.60;99.90
37108;DHT22;23019;49.300;6.846;2022-08-21T06:42:43;26.50;99.90
37108;DHT22;23019;49.300;6.846;2022-08-21T06:44:44;26.50;99.90
37108;DHT22;23019;49.300;6.846;2022-08-21T06:46:45;26.50;99.90
37108;DHT22;23019;49.300;6.846;2022-08-21T06:48:48;26.40;99.90
37108;DHT22;23019;49.300;6.846;2022-08-21T06:50:49;26.40;99.90
37108;DHT22;23019;49.300;6.846;2022-08-21T06:52:59;26.40;99.90
37108;DHT22;23019;49.300;6.846;2022-08-21T06:55:00;26.40;99.90
37108;DHT22;23019;49.300;6.846;2022-08-21T06:57:00;26.40;99.90
37108;DHT22;23019;49.300;6.846;2022-08-21T06:59:02;26.40;99.90
37108;DHT22;23019;49.300;6.846;2022-08-21T07:01:03;26.30;99.90
37108;DHT22;23019;49.300;6.846;2022-08-21T07:03:04;26.30;99.90
37108;DHT22;23019;49.300;6.846;2022-08-21T07:05:05;26.30;99.90
37108;DHT22;23019;49.300;6.846;2022-08-21T07:07:06;26.20;99.90
37108;DHT22;23019;49.300;6.846;2022-08-21T07:09:07;26.20;99.90
37108;DHT22;23019;49.300;6.846;2022-08-21T07:11:12;26.20;99.90
37108;DHT22;23019;49.300;6.846;2022-08-21T07:13:15;26.20;99.90
37108;DHT22;23019;49.300;6.846;2022-08-21T07:15:19;26.10;99.90
37108;DHT22;23019;49.300;6.846;2022-08-21T07:17:19;26.10;99.90
37108;DHT22;23019;49.300;6.846;2022-08-21T07:19:20;26.10;99.90
37108;DHT22;23019;49.300;6.846;2022-08-21T07:21:21;26.10;99.90
37108;DHT22;23019;49.300;6.846;2022-08-21T07:23:27;26.00;99.90
37108;DHT22;23019;49.300;6.846;2022-08-21T07:25:28;26.00;99.90
37108;DHT22;23019;49.300;6.846;2022-08-21T07:27:29;26.00;99.90
37108;DHT22;23019;49.300;6.846;2022-08-21T07:29:30;26.00;99.90
37108;DHT22;23019;49.300;6.846;2022-08-21T07:31:31;26.00;99.90
37108;DHT22;23019;49.300;6.846;2022-08-21T07:33:34;25.90;99.90
37108;DHT22;23019;49.300;6.846;2022-08-21T07:35:35;25.90;99.90
37108;DHT22;23019;49.300;6.846;2022-08-21T07:37:36;25.90;99.90
37108;DHT22;23019;49.300;6.846;2022-08-21T07:39:37;25.90;99.90
37108;DHT22;23019;49.300;6.846;2022-08-21T07:41:37;25.80;99.90
37108;DHT22;23019;49.300;6.846;2022-08-21T07:43:38;25.80;99.90
37108;DHT22;23019;49.300;6.846;2022-08-21T07:45:38;25.80;99.90
37108;DHT22;23019;49.300;6.846;2022-08-21T07:47:39;25.70;99.90
37108;DHT22;23019;49.300;6.846;2022-08-21T07:49:40;25.70;99.90
37108;DHT22;23019;49.300;6.846;2022-08-21T07:51:41;25.70;99.90
37108;DHT22;23019;49.300;6.846;2022-08-21T07:53:42;25.70;99.90
37108;DHT22;23019;49.300;6.846;2022-08-21T07:55:47;25.70;99.90
37108;DHT22;23019;49.300;6.846;2022-08-21T07:57:48;25.70;99.90
37108;DHT22;23019;49.300;6.846;2022-08-21T07:59:52;25.70;99.90
37108;DHT22;23019;49.300;6.846;2022-08-21T08:01:53;25.60;99.90
37108;DHT22;23019;49.300;6.846;2022-08-21T08:03:54;25.80;99.90
37108;DHT22;23019;49.300;6.846;2022-08-21T08:05:56;26.30;99.90
37108;DHT22;23019;49.300;6.846;2022-08-21T08:07:57;28.80;99.90
37108;DHT22;23019;49.300;6.846;2022-08-21T08:09:58;35.10;99.90
37108;DHT22;23019;49.300;6.846;2022-08-21T08:11:59;43.90;99.90
37108;DHT22;23019;49.300;6.846;2022-08-21T08:16:01;55.10;99.90
37108;DHT22;23019;49.300;6.846;2022-08-21T08:18:02;55.70;99.90
37108;DHT22;23019;49.300;6.846;2022-08-21T08:20:04;54.70;99.90
37108;DHT22;23019;49.300;6.846;2022-08-21T08:22:16;53.00;99.90
37108;DHT22;23019;49.300;6.846;2022-08-21T08:24:17;51.60;99.90
37108;DHT22;23019;49.300;6.846;2022-08-21T08:26:18;52.90;99.90
37108;DHT22;23019;49.300;6.846;2022-08-21T08:28:18;55.30;99.90
37108;DHT22;23019;49.300;6.846;2022-08-21T08:30:21;56.10;99.90
37108;DHT22;23019;49.300;6.846;2022-08-21T08:32:22;55.70;99.90
37108;DHT22;23019;49.300;6.846;2022-08-21T08:34:23;54.90;99.90
37108;DHT22;23019;49.300;6.846;2022-08-21T08:36:33;53.80;99.90
37108;DHT22;23019;49.300;6.846;2022-08-21T08:38:34;52.60;99.90
37108;DHT22;23019;49.300;6.846;2022-08-21T08:40:41;51.60;99.90
37108;DHT22;23019;49.300;6.846;2022-08-21T08:42:44;50.90;99.90
37108;DHT22;23019;49.300;6.846;2022-08-21T08:44:47;52.50;99.90
37108;DHT22;23019;49.300;6.846;2022-08-21T08:46:51;54.90;99.90
37108;DHT22;23019;49.300;6.846;2022-08-21T08:49:20;56.00;99.90
37108;DHT22;23019;49.300;6.846;2022-08-21T08:51:46;56.00;99.90
37108;DHT22;23019;49.300;6.846;2022-08-21T08:53:57;55.30;99.90
37108;DHT22;23019;49.300;6.846;2022-08-21T08:56:01;54.30;99.90
37108;DHT22;23019;49.300;6.846;2022-08-21T08:58:03;53.40;99.90
37108;DHT22;23019;49.300;6.846;2022-08-21T09:00:08;52.70;99.90
37108;DHT22;23019;49.300;6.846;2022-08-21T09:02:11;52.20;99.90
37108;DHT22;23019;49.300;6.846;2022-08-21T09:04:13;52.00;99.90
37108;DHT22;23019;49.300;6.846;2022-08-21T09:11:13;52.10;99.90
37108;DHT22;23019;49.300;6.846;2022-08-21T09:15:49;52.00;99.90
37108;DHT22;23019;49.300;6.846;2022-08-21T09:27:17;50.10;99.90
37108;DHT22;23019;49.300;6.846;2022-08-21T09:29:20;49.60;99.90
37108;DHT22;23019;49.300;6.846;2022-08-21T09:33:26;48.70;99.90
37108;DHT22;23019;49.300;6.846;2022-08-21T09:35:28;48.30;99.90
37108;DHT22;23019;49.300;6.846;2022-08-21T09:37:30;48.00;99.90
37108;DHT22;23019;49.300;6.846;2022-08-21T09:39:38;47.60;99.90
37108;DHT22;23019;49.300;6.846;2022-08-21T09:41:40;47.20;99.90
37108;DHT22;23019;49.300;6.846;2022-08-21T09:43:40;46.90;99.90
37108;DHT22;23019;49.300;6.846;2022-08-21T09:46:10;46.60;99.90
37108;DHT22;23019;49.300;6.846;2022-08-21T09:50:26;46.00;99.90
37108;DHT22;23019;49.300;6.846;2022-08-21T09:52:27;45.70;99.90
37108;DHT22;23019;49.300;6.846;2022-08-21T09:54:38;45.50;99.90
37108;DHT22;23019;49.300;6.846;2022-08-21T09:57:00;45.30;99.90
37108;DHT22;23019;49.300;6.846;2022-08-21T09:59:32;45.00;99.90
37108;DHT22;23019;49.300;6.846;2022-08-21T10:01:43;44.80;99.90
37108;DHT22;23019;49.300;6.846;2022-08-21T10:03:44;44.50;99.90
37108;DHT22;23019;49.300;6.846;2022-08-21T10:06:05;44.30;99.90
37108;DHT22;23019;49.300;6.846;2022-08-21T10:08:18;44.10;99.90
37108;DHT22;23019;49.300;6.846;2022-08-21T10:10:25;43.80;99.90
37108;DHT22;23019;49.300;6.846;2022-08-21T10:15:20;43.50;99.90
37108;DHT22;23019;49.300;6.846;2022-08-21T10:17:27;43.40;99.90
37108;DHT22;23019;49.300;6.846;2022-08-21T10:19:42;43.10;99.90
37108;DHT22;23019;49.300;6.846;2022-08-21T10:26:02;42.60;99.90
37108;DHT22;23019;49.300;6.846;2022-08-21T10:33:25;42.10;99.90
37108;DHT22;23019;49.300;6.846;2022-08-21T10:35:37;42.00;99.90
37108;DHT22;23019;49.300;6.846;2022-08-21T10:44:34;41.50;99.90
37108;DHT22;23019;49.300;6.846;2022-08-21T10:46:50;41.40;99.90
37108;DHT22;23019;49.300;6.846;2022-08-21T10:48:58;41.40;99.90
37108;DHT22;23019;49.300;6.846;2022-08-21T10:51:04;41.10;99.90
37108;DHT22;23019;49.300;6.846;2022-08-21T10:53:16;41.10;99.90
37108;DHT22;23019;49.300;6.846;2022-08-21T10:55:22;40.90;99.90
37108;DHT22;23019;49.300;6.846;2022-08-21T10:59:33;40.70;99.90
37108;DHT22;23019;49.300;6.846;2022-08-21T11:01:56;40.80;99.90
37108;DHT22;23019;49.300;6.846;2022-08-21T11:06:47;40.50;99.90
37108;DHT22;23019;49.300;6.846;2022-08-21T11:08:52;40.50;99.90
37108;DHT22;23019;49.300;6.846;2022-08-21T11:13:40;40.30;99.90
37108;DHT22;23019;49.300;6.846;2022-08-21T11:17:53;40.20;99.90
37108;DHT22;23019;49.300;6.846;2022-08-21T11:20:15;40.20;99.90
37108;DHT22;23019;49.300;6.846;2022-08-21T11:24:51;40.10;99.90
37108;DHT22;23019;49.300;6.846;2022-08-21T11:27:01;40.10;99.90
37108;DHT22;23019;49.300;6.846;2022-08-21T11:29:32;40.10;99.90
37108;DHT22;23019;49.300;6.846;2022-08-21T11:43:40;40.10;99.90
37108;DHT22;23019;49.300;6.846;2022-08-21T11:45:52;40.10;99.90
37108;DHT22;23019;49.300;6.846;2022-08-21T11:48:07;40.10;99.90
37108;DHT22;23019;49.300;6.846;2022-08-21T11:50:22;40.10;99.90
37108;DHT22;23019;49.300;6.846;2022-08-21T11:54:42;40.10;99.90
37108;DHT22;23019;49.300;6.846;2022-08-21T11:56:55;40.00;99.90
37108;DHT22;23019;49.300;6.846;2022-08-21T11:59:02;40.20;99.90
37108;DHT22;23019;49.300;6.846;2022-08-21T12:01:41;40.20;99.90
37108;DHT22;23019;49.300;6.846;2022-08-21T12:06:31;40.20;99.90
37108;DHT22;23019;49.300;6.846;2022-08-21T12:08:43;40.20;99.90
37108;DHT22;23019;49.300;6.846;2022-08-21T12:11:09;40.30;99.90
37108;DHT22;23019;49.300;6.846;2022-08-21T12:13:32;40.30;99.90
37108;DHT22;23019;49.300;6.846;2022-08-21T12:15:33;40.30;99.90
37108;DHT22;23019;49.300;6.846;2022-08-21T12:17:37;40.30;99.90
37108;DHT22;23019;49.300;6.846;2022-08-21T12:19:38;40.30;99.90
37108;DHT22;23019;49.300;6.846;2022-08-21T12:21:51;40.30;99.90
37108;DHT22;23019;49.300;6.846;2022-08-21T12:24:00;40.30;99.90
37108;DHT22;23019;49.300;6.846;2022-08-21T12:28:10;40.30;99.90
37108;DHT22;23019;49.300;6.846;2022-08-21T12:32:42;40.30;99.90
37108;DHT22;23019;49.300;6.846;2022-08-21T12:35:17;40.30;99.90
37108;DHT22;23019;49.300;6.846;2022-08-21T12:37:34;40.30;99.90
37108;DHT22;23019;49.300;6.846;2022-08-21T12:39:38;40.30;99.90
37108;DHT22;23019;49.300;6.846;2022-08-21T12:42:11;40.20;99.90
37108;DHT22;23019;49.300;6.846;2022-08-21T12:44:29;40.20;99.90
37108;DHT22;23019;49.300;6.846;2022-08-21T12:46:37;40.20;99.90
37108;DHT22;23019;49.300;6.846;2022-08-21T12:48:51;40.20;99.90
37108;DHT22;23019;49.300;6.846;2022-08-21T12:51:05;40.20;99.90
37108;DHT22;23019;49.300;6.846;2022-08-21T12:55:41;40.20;99.90
37108;DHT22;23019;49.300;6.846;2022-08-21T12:57:43;40.20;99.90
37108;DHT22;23019;49.300;6.846;2022-08-21T12:59:44;40.10;99.90
37108;DHT22;23019;49.300;6.846;2022-08-21T13:01:48;40.10;99.90
37108;DHT22;23019;49.300;6.846;2022-08-21T13:03:51;40.10;99.90
37108;DHT22;23019;49.300;6.846;2022-08-21T13:05:53;40.10;99.90
37108;DHT22;23019;49.300;6.846;2022-08-21T13:07:54;40.00;99.90
37108;DHT22;23019;49.300;6.846;2022-08-21T13:10:12;40.00;99.90
37108;DHT22;23019;49.300;6.846;2022-08-21T13:12:15;40.00;99.90
37108;DHT22;23019;49.300;6.846;2022-08-21T13:16:26;40.00;99.90
37108;DHT22;23019;49.300;6.846;2022-08-21T13:18:29;39.90;99.90
37108;DHT22;23019;49.300;6.846;2022-08-21T13:20:38;39.90;99.90
37108;DHT22;23019;49.300;6.846;2022-08-21T13:22:43;39.90;99.90
37108;DHT22;23019;49.300;6.846;2022-08-21T13:24:47;39.80;99.90
37108;DHT22;23019;49.300;6.846;2022-08-21T13:26:49;39.80;99.90
37108;DHT22;23019;49.300;6.846;2022-08-21T13:28:50;39.80;99.90
37108;DHT22;23019;49.300;6.846;2022-08-21T13:30:53;39.80;99.90
37108;DHT22;23019;49.300;6.846;2022-08-21T13:32:58;39.70;99.90
37108;DHT22;23019;49.300;6.846;2022-08-21T13:35:15;39.70;99.90
37108;DHT22;23019;49.300;6.846;2022-08-21T13:37:17;39.70;99.90
37108;DHT22;23019;49.300;6.846;2022-08-21T13:39:18;39.60;99.90
37108;DHT22;23019;49.300;6.846;2022-08-21T13:41:24;39.60;99.90
37108;DHT22;23019;49.300;6.846;2022-08-21T13:43:32;39.50;99.90
37108;DHT22;23019;49.300;6.846;2022-08-21T13:45:33;39.50;99.90
37108;DHT22;23019;49.300;6.846;2022-08-21T13:47:34;39.40;99.90
37108;DHT22;23019;49.300;6.846;2022-08-21T13:49:47;39.40;99.90
37108;DHT22;23019;49.300;6.846;2022-08-21T13:51:49;39.40;99.90
37108;DHT22;23019;49.300;6.846;2022-08-21T13:53:53;39.40;99.90
37108;DHT22;23019;49.300;6.846;2022-08-21T13:55:55;39.30;99.90
37108;DHT22;23019;49.300;6.846;2022-08-21T13:58:00;39.40;99.90
37108;DHT22;23019;49.300;6.846;2022-08-21T14:00:20;39.20;99.90
37108;DHT22;23019;49.300;6.846;2022-08-21T14:02:23;39.20;99.90
37108;DHT22;23019;49.300;6.846;2022-08-21T14:04:51;39.10;99.90
37108;DHT22;23019;49.300;6.846;2022-08-21T14:06:54;39.10;99.90
37108;DHT22;23019;49.300;6.846;2022-08-21T14:08:58;39.10;99.90
37108;DHT22;23019;49.300;6.846;2022-08-21T14:11:01;39.10;99.90
37108;DHT22;23019;49.300;6.846;2022-08-21T14:13:05;38.90;99.90
37108;DHT22;23019;49.300;6.846;2022-08-21T14:15:07;39.00;99.90
37108;DHT22;23019;49.300;6.846;2022-08-21T14:17:13;38.90;99.90
37108;DHT22;23019;49.300;6.846;2022-08-21T14:21:33;38.80;99.90
37108;DHT22;23019;49.300;6.846;2022-08-21T14:23:36;38.80;99.90
37108;DHT22;23019;49.300;6.846;2022-08-21T14:25:43;38.70;99.90